sensor_id;sensor_type;location;lat;lon;timestamp;P1;durP1;ratioP1;P2;durP2;ratioP2
22947;SDS011;11640;52.520;13.456;2022-09-09T00:04:18;17.17;;;14.20;;
22947;SDS011;11640;52.520;13.456;2022-09-09T00:09:27;16.50;;;13.40;;
22947;SDS011;11640;52.520;13.456;2022-09-09T00:14:34;15.98;;;13.52;;
22947;SDS011;11640;52.520;13.456;2022-09-09T00:19:45;15.10;;;13.43;;
22947;SDS011;11640;52.520;13.456;2022-09-09T00:25:08;15.98;;;13.95;;
22947;SDS011;11640;52.520;13.456;2022-09-09T00:30:19;17.25;;;14.25;;
22947;SDS011;11640;52.520;13.456;2022-09-09T00:36:01;17.27;;;15.23;;
22947;SDS011;11640;52.520;13.456;2022-09-09T00:41:09;20.13;;;16.33;;
22947;SDS011;11640;52.520;13.456;2022-09-09T00:51:37;19.15;;;15.32;;
22947;SDS011;11640;52.520;13.456;2022-09-09T00:57:25;19.33;;;16.88;;
22947;SDS011;11640;52.520;13.456;2022-09-09T01:02:31;18.63;;;16.08;;
22947;SDS011;11640;52.520;13.456;2022-09-09T01:07:44;18.75;;;16.35;;
22947;SDS011;11640;52.520;13.456;2022-09-09T01:12:51;18.55;;;16.27;;
22947;SDS011;11640;52.520;13.456;2022-09-09T01:18:00;18.30;;;15.30;;
22947;SDS011;11640;52.520;13.456;2022-09-09T01:28:50;17.33;;;14.57;;
22947;SDS011;11640;52.520;13.456;2022-09-09T01:34:08;16.35;;;14.43;;
22947;SDS011;11640;52.520;13.456;2022-09-09T01:39:13;16.02;;;13.82;;
22947;SDS011;11640;52.520;13.456;2022-09-09T01:44:17;17.17;;;13.70;;
22947;SDS011;11640;52.520;13.456;2022-09-09T01:49:21;17.10;;;13.40;;
22947;SDS011;11640;52.520;13.456;2022-09-09T01:54:25;15.18;;;12.77;;
22947;SDS011;11640;52.520;13.456;2022-09-09T01:59:36;16.45;;;14.18;;
22947;SDS011;11640;52.520;13.456;2022-09-09T02:04:49;19.00;;;15.13;;
22947;SDS011;11640;52.520;13.456;2022-09-09T02:10:04;17.42;;;15.00;;
22947;SDS011;11640;52.520;13.456;2022-09-09T02:20:34;17.00;;;13.40;;
22947;SDS011;11640;52.520;13.456;2022-09-09T02:25:39;16.63;;;13.52;;
22947;SDS011;11640;52.520;13.456;2022-09-09T02:30:53;15.93;;;13.40;;
22947;SDS011;11640;52.520;13.456;2022-09-09T02:36:03;16.67;;;13.30;;
22947;SDS011;11640;52.520;13.456;2022-09-09T02:41:08;14.63;;;12.32;;
22947;SDS011;11640;52.520;13.456;2022-09-09T02:51:40;16.52;;;12.35;;
22947;SDS011;11640;52.520;13.456;2022-09-09T02:56:54;16.35;;;13.57;;
22947;SDS011;11640;52.520;13.456;2022-09-09T03:02:05;15.50;;;12.63;;
22947;SDS011;11640;52.520;13.456;2022-09-09T03:07:09;16.42;;;13.15;;
22947;SDS011;11640;52.520;13.456;2022-09-09T03:12:11;16.63;;;12.60;;
22947;SDS011;11640;52.520;13.456;2022-09-09T03:17:14;17.70;;;12.88;;
22947;SDS011;11640;52.520;13.456;2022-09-09T03:27:26;16.02;;;12.70;;
22947;SDS011;11640;52.520;13.456;2022-09-09T03:32:29;14.15;;;12.00;;
22947;SDS011;11640;52.520;13.456;2022-09-09T03:37:32;15.48;;;11.88;;
22947;SDS011;11640;52.520;13.456;2022-09-09T03:42:34;16.55;;;11.70;;
22947;SDS011;11640;52.520;13.456;2022-09-09T03:47:38;13.98;;;11.32;;
22947;SDS011;11640;52.520;13.456;2022-09-09T03:52:40;13.63;;;11.00;;
22947;SDS011;11640;52.520;13.456;2022-09-09T03:57:49;14.90;;;11.57;;
22947;SDS011;11640;52.520;13.456;2022-09-09T04:02:52;15.10;;;11.68;;
22947;SDS011;11640;52.520;13.456;2022-09-09T04:07:55;13.43;;;11.25;;
22947;SDS011;11640;52.520;13.456;2022-09-09T04:12:58;12.80;;;10.50;;
22947;SDS011;11640;52.520;13.456;2022-09-09T04:18:02;15.40;;;11.68;;
22947;SDS011;11640;52.520;13.456;2022-09-09T04:23:04;13.15;;;10.50;;
22947;SDS011;11640;52.520;13.456;2022-09-09T04:28:07;14.05;;;10.85;;
22947;SDS011;11640;52.520;13.456;2022-09-09T04:33:11;13.00;;;10.60;;
22947;SDS011;11640;52.520;13.456;2022-09-09T04:38:13;14.88;;;11.20;;
22947;SDS011;11640;52.520;13.456;2022-09-09T04:43:17;15.93;;;11.90;;
22947;SDS011;11640;52.520;13.456;2022-09-09T04:48:24;15.90;;;12.10;;
22947;SDS011;11640;52.520;13.456;2022-09-09T04:53:26;15.32;;;12.05;;
22947;SDS011;11640;52.520;13.456;2022-09-09T04:58:28;14.65;;;11.50;;
22947;SDS011;11640;52.520;13.456;2022-09-09T05:03:30;15.13;;;11.32;;
22947;SDS011;11640;52.520;13.456;2022-09-09T05:08:32;12.38;;;10.18;;
22947;SDS011;11640;52.520;13.456;2022-09-09T05:13:34;13.75;;;10.50;;
22947;SDS011;11640;52.520;13.456;2022-09-09T05:18:42;15.32;;;10.80;;
22947;SDS011;11640;52.520;13.456;2022-09-09T05:23:44;12.82;;;9.57;;
22947;SDS011;11640;52.520;13.456;2022-09-09T05:28:47;11.95;;;9.25;;
22947;SDS011;11640;52.520;13.456;2022-09-09T05:33:49;13.55;;;9.40;;
22947;SDS011;11640;52.520;13.456;2022-09-09T05:38:51;10.90;;;8.55;;
22947;SDS011;11640;52.520;13.456;2022-09-09T05:43:55;10.93;;;8.80;;
22947;SDS011;11640;52.520;13.456;2022-09-09T05:48:57;10.48;;;7.88;;
22947;SDS011;11640;52.520;13.456;2022-09-09T05:54:03;11.88;;;8.45;;
22947;SDS011;11640;52.520;13.456;2022-09-09T05:59:08;14.80;;;8.30;;
22947;SDS011;11640;52.520;13.456;2022-09-09T06:04:12;11.73;;;8.23;;
22947;SDS011;11640;52.520;13.456;2022-09-09T06:09:15;11.85;;;7.70;;
22947;SDS011;11640;52.520;13.456;2022-09-09T06:14:17;12.80;;;7.90;;
22947;SDS011;11640;52.520;13.456;2022-09-09T06:19:21;7.85;;;6.40;;
22947;SDS011;11640;52.520;13.456;2022-09-09T06:24:25;8.07;;;5.57;;
22947;SDS011;11640;52.520;13.456;2022-09-09T06:29:27;9.88;;;6.43;;
22947;SDS011;11640;52.520;13.456;2022-09-09T06:34:30;8.15;;;5.70;;
22947;SDS011;11640;52.520;13.456;2022-09-09T06:39:33;8.23;;;5.90;;
22947;SDS011;11640;52.520;13.456;2022-09-09T06:44:35;10.07;;;5.80;;
22947;SDS011;11640;52.520;13.456;2022-09-09T06:49:40;8.63;;;5.13;;
22947;SDS011;11640;52.520;13.456;2022-09-09T06:54:46;7.25;;;4.95;;
22947;SDS011;11640;52.520;13.456;2022-09-09T06:59:49;6.70;;;4.80;;
22947;SDS011;11640;52.520;13.456;2022-09-09T07:04:52;6.38;;;4.00;;
22947;SDS011;11640;52.520;13.456;2022-09-09T07:09:54;10.38;;;4.43;;
22947;SDS011;11640;52.520;13.456;2022-09-09T07:14:56;6.60;;;4.10;;
22947;SDS011;11640;52.520;13.456;2022-09-09T07:19:58;7.38;;;4.07;;
22947;SDS011;11640;52.520;13.456;2022-09-09T07:25:00;9.18;;;4.15;;
22947;SDS011;11640;52.520;13.456;2022-09-09T07:30:03;5.93;;;3.03;;
22947;SDS011;11640;52.520;13.456;2022-09-09T07:35:07;7.28;;;3.13;;
22947;SDS011;11640;52.520;13.456;2022-09-09T07:40:09;9.05;;;3.28;;
22947;SDS011;11640;52.520;13.456;2022-09-09T07:45:11;6.03;;;3.10;;
22947;SDS011;11640;52.520;13.456;2022-09-09T07:50:13;5.80;;;2.58;;
22947;SDS011;11640;52.520;13.456;2022-09-09T07:55:16;5.18;;;2.70;;
22947;SDS011;11640;52.520;13.456;2022-09-09T08:00:19;6.18;;;3.50;;
22947;SDS011;11640;52.520;13.456;2022-09-09T08:05:27;4.95;;;2.30;;
22947;SDS011;11640;52.520;13.456;2022-09-09T08:10:29;5.28;;;2.60;;
22947;SDS011;11640;52.520;13.456;2022-09-09T08:15:32;5.15;;;2.55;;
22947;SDS011;11640;52.520;13.456;2022-09-09T08:20:35;6.63;;;2.60;;
22947;SDS011;11640;52.520;13.456;2022-09-09T08:25:39;6.18;;;2.65;;
22947;SDS011;11640;52.520;13.456;2022-09-09T08:30:41;5.07;;;2.40;;
22947;SDS011;11640;52.520;13.456;2022-09-09T08:35:49;5.00;;;3.03;;
22947;SDS011;11640;52.520;13.456;2022-09-09T08:40:52;6.15;;;2.40;;
22947;SDS011;11640;52.520;13.456;2022-09-09T08:46:17;5.68;;;2.90;;
22947;SDS011;11640;52.520;13.456;2022-09-09T08:51:30;8.25;;;2.25;;
22947;SDS011;11640;52.520;13.456;2022-09-09T08:56:35;5.55;;;2.25;;
22947;SDS011;11640;52.520;13.456;2022-09-09T09:01:42;6.47;;;2.50;;
22947;SDS011;11640;52.520;13.456;2022-09-09T09:12:25;5.90;;;2.80;;
22947;SDS011;11640;52.520;13.456;2022-09-09T09:17:35;6.53;;;2.40;;
22947;SDS011;11640;52.520;13.456;2022-09-09T09:22:50;4.75;;;2.33;;
22947;SDS011;11640;52.520;13.456;2022-09-09T09:38:26;5.05;;;1.90;;
22947;SDS011;11640;52.520;13.456;2022-09-09T09:43:53;6.10;;;2.35;;
22947;SDS011;11640;52.520;13.456;2022-09-09T09:49:08;4.57;;;2.03;;
22947;SDS011;11640;52.520;13.456;2022-09-09T09:59:34;5.35;;;2.13;;
22947;SDS011;11640;52.520;13.456;2022-09-09T10:04:47;5.10;;;2.22;;
22947;SDS011;11640;52.520;13.456;2022-09-09T10:09:53;6.75;;;2.20;;
22947;SDS011;11640;52.520;13.456;2022-09-09T10:25:31;6.72;;;2.30;;
22947;SDS011;11640;52.520;13.456;2022-09-09T10:31:13;5.93;;;1.83;;
22947;SDS011;11640;52.520;13.456;2022-09-09T10:36:26;4.65;;;1.80;;
22947;SDS011;11640;52.520;13.456;2022-09-09T10:47:04;6.57;;;2.10;;
22947;SDS011;11640;52.520;13.456;2022-09-09T10:57:33;6.60;;;2.15;;
22947;SDS011;11640;52.520;13.456;2022-09-09T11:02:40;4.25;;;1.75;;
22947;SDS011;11640;52.520;13.456;2022-09-09T11:07:58;6.20;;;1.80;;
22947;SDS011;11640;52.520;13.456;2022-09-09T11:13:05;4.37;;;1.67;;
22947;SDS011;11640;52.520;13.456;2022-09-09T11:18:19;4.93;;;1.65;;
22947;SDS011;11640;52.520;13.456;2022-09-09T11:23:27;4.70;;;1.90;;
22947;SDS011;11640;52.520;13.456;2022-09-09T11:44:28;6.15;;;1.88;;
22947;SDS011;11640;52.520;13.456;2022-09-09T11:54:47;5.93;;;1.98;;
22947;SDS011;11640;52.520;13.456;2022-09-09T11:59:53;4.85;;;1.50;;
22947;SDS011;11640;52.520;13.456;2022-09-09T12:04:57;3.58;;;1.63;;
22947;SDS011;11640;52.520;13.456;2022-09-09T12:10:20;2.95;;;1.40;;
22947;SDS011;11640;52.520;13.456;2022-09-09T12:15:33;5.57;;;1.58;;
22947;SDS011;11640;52.520;13.456;2022-09-09T12:20:36;4.60;;;1.42;;
22947;SDS011;11640;52.520;13.456;2022-09-09T12:25:49;4.75;;;1.40;;
22947;SDS011;11640;52.520;13.456;2022-09-09T12:31:00;2.83;;;1.00;;
22947;SDS011;11640;52.520;13.456;2022-09-09T12:36:19;4.15;;;1.20;;
22947;SDS011;11640;52.520;13.456;2022-09-09T12:41:26;4.43;;;1.15;;
22947;SDS011;11640;52.520;13.456;2022-09-09T12:46:32;3.30;;;1.25;;
22947;SDS011;11640;52.520;13.456;2022-09-09T12:51:46;3.65;;;1.30;;
22947;SDS011;11640;52.520;13.456;2022-09-09T12:56:48;5.57;;;1.70;;
22947;SDS011;11640;52.520;13.456;2022-09-09T13:01:57;4.20;;;1.40;;
22947;SDS011;11640;52.520;13.456;2022-09-09T13:07:08;3.85;;;1.17;;
22947;SDS011;11640;52.520;13.456;2022-09-09T13:12:13;2.95;;;1.17;;
22947;SDS011;11640;52.520;13.456;2022-09-09T13:17:24;4.40;;;1.13;;
22947;SDS011;11640;52.520;13.456;2022-09-09T13:22:34;4.22;;;1.15;;
22947;SDS011;11640;52.520;13.456;2022-09-09T13:27:41;5.28;;;1.13;;
22947;SDS011;11640;52.520;13.456;2022-09-09T13:33:05;4.82;;;2.03;;
22947;SDS011;11640;52.520;13.456;2022-09-09T13:38:08;4.60;;;1.95;;
22947;SDS011;11640;52.520;13.456;2022-09-09T13:43:14;4.97;;;1.30;;
22947;SDS011;11640;52.520;13.456;2022-09-09T13:48:22;3.65;;;1.23;;
22947;SDS011;11640;52.520;13.456;2022-09-09T13:53:24;3.70;;;1.20;;
22947;SDS011;11640;52.520;13.456;2022-09-09T13:58:26;3.15;;;1.02;;
22947;SDS011;11640;52.520;13.456;2022-09-09T14:03:28;3.55;;;1.15;;
22947;SDS011;11640;52.520;13.456;2022-09-09T14:08:30;7.97;;;1.13;;
22947;SDS011;11640;52.520;13.456;2022-09-09T14:13:38;4.05;;;1.15;;
22947;SDS011;11640;52.520;13.456;2022-09-09T14:18:40;4.82;;;1.20;;
22947;SDS011;11640;52.520;13.456;2022-09-09T14:23:43;3.95;;;1.30;;
22947;SDS011;11640;52.520;13.456;2022-09-09T14:28:44;3.67;;;1.60;;
22947;SDS011;11640;52.520;13.456;2022-09-09T14:33:56;5.40;;;1.48;;
22947;SDS011;11640;52.520;13.456;2022-09-09T14:38:58;3.03;;;1.20;;
22947;SDS011;11640;52.520;13.456;2022-09-09T14:44:00;3.67;;;1.05;;
22947;SDS011;11640;52.520;13.456;2022-09-09T14:49:01;3.47;;;1.23;;
22947;SDS011;11640;52.520;13.456;2022-09-09T14:54:03;4.80;;;1.60;;
22947;SDS011;11640;52.520;13.456;2022-09-09T14:59:06;5.68;;;1.58;;
22947;SDS011;11640;52.520;13.456;2022-09-09T15:04:07;4.63;;;1.58;;
22947;SDS011;11640;52.520;13.456;2022-09-09T15:09:13;4.32;;;1.30;;
22947;SDS011;11640;52.520;13.456;2022-09-09T15:14:16;4.60;;;1.45;;
22947;SDS011;11640;52.520;13.456;2022-09-09T15:19:25;3.47;;;1.35;;
22947;SDS011;11640;52.520;13.456;2022-09-09T15:24:27;3.97;;;1.40;;
22947;SDS011;11640;52.520;13.456;2022-09-09T15:29:28;5.32;;;1.30;;
22947;SDS011;11640;52.520;13.456;2022-09-09T15:34:30;5.25;;;1.38;;
22947;SDS011;11640;52.520;13.456;2022-09-09T15:39:32;3.08;;;1.05;;
22947;SDS011;11640;52.520;13.456;2022-09-09T15:44:39;4.93;;;1.08;;
22947;SDS011;11640;52.520;13.456;2022-09-09T15:49:43;5.45;;;1.08;;
22947;SDS011;11640;52.520;13.456;2022-09-09T15:54:45;4.38;;;1.38;;
22947;SDS011;11640;52.520;13.456;2022-09-09T15:59:46;3.70;;;1.40;;
22947;SDS011;11640;52.520;13.456;2022-09-09T16:04:49;4.40;;;1.20;;
22947;SDS011;11640;52.520;13.456;2022-09-09T16:09:51;4.90;;;1.50;;
22947;SDS011;11640;52.520;13.456;2022-09-09T16:14:53;3.90;;;1.30;;
22947;SDS011;11640;52.520;13.456;2022-09-09T16:19:56;3.17;;;1.08;;
22947;SDS011;11640;52.520;13.456;2022-09-09T16:24:58;3.15;;;1.27;;
22947;SDS011;11640;52.520;13.456;2022-09-09T16:30:00;5.50;;;1.40;;
22947;SDS011;11640;52.520;13.456;2022-09-09T16:35:02;5.20;;;1.48;;
22947;SDS011;11640;52.520;13.456;2022-09-09T16:40:04;5.60;;;2.03;;
22947;SDS011;11640;52.520;13.456;2022-09-09T16:45:07;6.57;;;1.92;;
22947;SDS011;11640;52.520;13.456;2022-09-09T16:50:09;5.40;;;2.20;;
22947;SDS011;11640;52.520;13.456;2022-09-09T16:55:11;4.75;;;1.90;;
22947;SDS011;11640;52.520;13.456;2022-09-09T17:00:13;5.10;;;1.75;;
22947;SDS011;11640;52.520;13.456;2022-09-09T17:05:14;5.82;;;2.17;;
22947;SDS011;11640;52.520;13.456;2022-09-09T17:10:16;5.30;;;2.30;;
22947;SDS011;11640;52.520;13.456;2022-09-09T17:15:18;7.43;;;2.40;;
22947;SDS011;11640;52.520;13.456;2022-09-09T17:20:20;4.90;;;2.00;;
22947;SDS011;11640;52.520;13.456;2022-09-09T17:25:22;6.18;;;1.80;;
22947;SDS011;11640;52.520;13.456;2022-09-09T17:30:26;4.90;;;1.60;;
22947;SDS011;11640;52.520;13.456;2022-09-09T17:35:28;4.78;;;1.80;;
22947;SDS011;11640;52.520;13.456;2022-09-09T17:40:31;4.25;;;1.80;;
22947;SDS011;11640;52.520;13.456;2022-09-09T17:45:33;3.50;;;1.40;;
22947;SDS011;11640;52.520;13.456;2022-09-09T17:50:35;4.45;;;1.42;;
22947;SDS011;11640;52.520;13.456;2022-09-09T17:55:37;3.55;;;1.60;;
22947;SDS011;11640;52.520;13.456;2022-09-09T18:00:39;3.88;;;1.90;;
22947;SDS011;11640;52.520;13.456;2022-09-09T18:05:41;3.13;;;1.60;;
22947;SDS011;11640;52.520;13.456;2022-09-09T18:10:50;4.90;;;1.67;;
22947;SDS011;11640;52.520;13.456;2022-09-09T18:15:56;3.25;;;1.58;;
22947;SDS011;11640;52.520;13.456;2022-09-09T18:21:05;4.57;;;1.70;;
22947;SDS011;11640;52.520;13.456;2022-09-09T18:26:09;3.85;;;1.55;;
22947;SDS011;11640;52.520;13.456;2022-09-09T18:31:13;4.18;;;1.70;;
22947;SDS011;11640;52.520;13.456;2022-09-09T18:36:17;4.57;;;2.13;;
22947;SDS011;11640;52.520;13.456;2022-09-09T18:41:28;4.65;;;1.70;;
22947;SDS011;11640;52.520;13.456;2022-09-09T18:46:35;8.07;;;2.30;;
22947;SDS011;11640;52.520;13.456;2022-09-09T18:51:38;4.35;;;1.95;;
22947;SDS011;11640;52.520;13.456;2022-09-09T18:56:41;5.68;;;2.90;;
22947;SDS011;11640;52.520;13.456;2022-09-09T19:01:44;5.93;;;1.85;;
22947;SDS011;11640;52.520;13.456;2022-09-09T19:06:47;5.97;;;2.25;;
22947;SDS011;11640;52.520;13.456;2022-09-09T19:11:50;5.07;;;1.90;;
22947;SDS011;11640;52.520;13.456;2022-09-09T19:16:52;4.75;;;1.83;;
22947;SDS011;11640;52.520;13.456;2022-09-09T19:21:54;6.30;;;2.13;;
22947;SDS011;11640;52.520;13.456;2022-09-09T19:27:03;4.85;;;1.98;;
22947;SDS011;11640;52.520;13.456;2022-09-09T19:32:07;4.38;;;2.00;;
22947;SDS011;11640;52.520;13.456;2022-09-09T19:37:31;4.78;;;2.10;;
22947;SDS011;11640;52.520;13.456;2022-09-09T19:42:33;4.80;;;2.00;;
22947;SDS011;11640;52.520;13.456;2022-09-09T19:47:35;3.50;;;1.77;;
22947;SDS011;11640;52.520;13.456;2022-09-09T19:52:37;4.88;;;2.30;;
22947;SDS011;11640;52.520;13.456;2022-09-09T19:57:39;3.55;;;1.77;;
22947;SDS011;11640;52.520;13.456;2022-09-09T20:02:40;5.55;;;1.90;;
22947;SDS011;11640;52.520;13.456;2022-09-09T20:08:04;4.03;;;1.55;;
22947;SDS011;11640;52.520;13.456;2022-09-09T20:13:06;4.00;;;1.58;;
22947;SDS011;11640;52.520;13.456;2022-09-09T20:18:07;3.50;;;1.40;;
22947;SDS011;11640;52.520;13.456;2022-09-09T20:23:09;4.47;;;1.60;;
22947;SDS011;11640;52.520;13.456;2022-09-09T20:28:11;7.10;;;2.08;;
22947;SDS011;11640;52.520;13.456;2022-09-09T20:33:13;5.43;;;2.10;;
22947;SDS011;11640;52.520;13.456;2022-09-09T20:38:15;5.45;;;1.80;;
22947;SDS011;11640;52.520;13.456;2022-09-09T20:43:17;8.07;;;2.20;;
22947;SDS011;11640;52.520;13.456;2022-09-09T20:48:19;5.22;;;1.70;;
22947;SDS011;11640;52.520;13.456;2022-09-09T20:53:21;4.30;;;1.92;;
22947;SDS011;11640;52.520;13.456;2022-09-09T20:58:23;7.60;;;1.80;;
22947;SDS011;11640;52.520;13.456;2022-09-09T21:03:28;5.70;;;2.90;;
22947;SDS011;11640;52.520;13.456;2022-09-09T21:08:33;6.43;;;2.28;;
22947;SDS011;11640;52.520;13.456;2022-09-09T21:13:36;3.97;;;2.05;;
22947;SDS011;11640;52.520;13.456;2022-09-09T21:18:39;4.97;;;2.28;;
22947;SDS011;11640;52.520;13.456;2022-09-09T21:23:42;3.45;;;1.77;;
22947;SDS011;11640;52.520;13.456;2022-09-09T21:28:44;3.72;;;1.70;;
22947;SDS011;11640;52.520;13.456;2022-09-09T21:33:46;4.97;;;1.77;;
22947;SDS011;11640;52.520;13.456;2022-09-09T21:38:47;13.23;;;9.82;;
22947;SDS011;11640;52.520;13.456;2022-09-09T21:43:50;8.18;;;3.78;;
22947;SDS011;11640;52.520;13.456;2022-09-09T21:48:54;5.38;;;1.70;;
22947;SDS011;11640;52.520;13.456;2022-09-09T21:53:56;5.05;;;1.95;;
22947;SDS011;11640;52.520;13.456;2022-09-09T21:58:58;4.70;;;1.67;;
22947;SDS011;11640;52.520;13.456;2022-09-09T22:04:04;4.95;;;1.40;;
22947;SDS011;11640;52.520;13.456;2022-09-09T22:09:05;4.20;;;1.40;;
22947;SDS011;11640;52.520;13.456;2022-09-09T22:14:07;3.85;;;1.60;;
22947;SDS011;11640;52.520;13.456;2022-09-09T22:19:09;4.28;;;1.80;;
22947;SDS011;11640;52.520;13.456;2022-09-09T22:24:12;4.57;;;1.42;;
22947;SDS011;11640;52.520;13.456;2022-09-09T22:29:14;3.28;;;1.50;;
22947;SDS011;11640;52.520;13.456;2022-09-09T22:34:15;3.78;;;1.60;;
22947;SDS011;11640;52.520;13.456;2022-09-09T22:39:17;6.03;;;1.88;;
22947;SDS011;11640;52.520;13.456;2022-09-09T22:44:21;4.20;;;1.60;;
22947;SDS011;11640;52.520;13.456;2022-09-09T22:49:24;4.13;;;1.75;;
22947;SDS011;11640;52.520;13.456;2022-09-09T22:54:27;4.95;;;1.83;;
22947;SDS011;11640;52.520;13.456;2022-09-09T22:59:29;4.88;;;1.80;;
22947;SDS011;11640;52.520;13.456;2022-09-09T23:04:31;5.32;;;1.95;;
22947;SDS011;11640;52.520;13.456;2022-09-09T23:09:33;4.18;;;2.13;;
22947;SDS011;11640;52.520;13.456;2022-09-09T23:14:35;4.55;;;1.75;;
22947;SDS011;11640;52.520;13.456;2022-09-09T23:19:36;4.30;;;2.03;;
22947;SDS011;11640;52.520;13.456;2022-09-09T23:24:39;4.18;;;1.73;;
22947;SDS011;11640;52.520;13.456;2022-09-09T23:29:41;4.93;;;2.20;;
22947;SDS011;11640;52.520;13.456;2022-09-09T23:34:43;5.22;;;2.40;;
22947;SDS011;11640;52.520;13.456;2022-09-09T23:39:46;6.28;;;2.40;;
22947;SDS011;11640;52.520;13.456;2022-09-09T23:44:48;5.05;;;2.30;;
22947;SDS011;11640;52.520;13.456;2022-09-09T23:49:50;4.68;;;2.30;;
22947;SDS011;11640;52.520;13.456;2022-09-09T23:54:54;6.57;;;2.58;;
22947;SDS011;11640;52.520;13.456;2022-09-09T23:59:56;5.32;;;3.20;;
